Time;durP1;ratioP1;P1;durP2;ratioP2;P2;SDS_P1;SDS_P2;PMS_P1;PMS_P2;Temp;Humidity;BMP_temperature;BMP_pressure;BME280_temperature;BME280_humidity;BME280_pressure;Samples;Min_cycle;Max_cycle;Signal;HPM_P1;HPM_P2
2021/12/21 00:00:12;;;;;;;19.05;12.77;;;;;;;-144.19;100.00;79704.31;5011846;28;20072;-86
2021/12/21 00:02:44;;;;;;;21.25;11.98;;;;;;;-144.19;100.00;79694.47;5010961;28;20049;-87
2021/12/21 00:05:17;;;;;;;20.92;13.65;;;;;;;-144.19;100.00;79694.47;5010948;28;20579;-85
2021/12/21 00:07:46;;;;;;;23.83;13.32;;;;;;;-144.19;100.00;79698.41;5010604;28;20062;-85
2021/12/21 00:10:13;;;;;;;24.27;12.95;;;;;;;-144.19;100.00;79708.25;5012232;28;20057;-84
2021/12/21 00:12:50;;;;;;;20.02;12.75;;;;;;;-144.19;100.00;79714.16;5012073;28;20046;-84
2021/12/21 00:15:33;;;;;;;24.60;13.00;;;;;;;-144.19;100.00;79702.34;5012236;28;20053;-87
2021/12/21 00:18:06;;;;;;;18.88;11.75;;;;;;;-144.19;100.00;79698.41;5011512;28;20201;-85
2021/12/21 00:20:51;;;;;;;23.10;12.82;;;;;;;-144.19;100.00;79690.53;5011054;28;20053;-88
2021/12/21 00:25:45;;;;;;;23.17;12.23;;;;;;;-144.19;100.00;79700.38;5012280;28;20048;-85
2021/12/21 00:28:11;;;;;;;17.33;10.93;;;;;;;-144.19;100.00;79718.09;5011702;28;20575;-85
2021/12/21 00:30:38;;;;;;;20.20;11.25;;;;;;;-144.19;100.00;79700.38;5011158;28;20069;-84
2021/12/21 00:33:04;;;;;;;23.73;11.88;;;;;;;-144.19;100.00;79698.41;5010834;28;20061;-86
2021/12/21 00:35:31;;;;;;;20.23;12.02;;;;;;;-144.19;100.00;79702.34;5036967;28;20415;-87
2021/12/21 00:37:58;;;;;;;22.23;12.32;;;;;;;-144.19;100.00;79686.59;5011868;28;20045;-84
2021/12/21 00:40:24;;;;;;;17.48;11.85;;;;;;;-144.19;100.00;79686.59;5011089;28;20057;-86
2021/12/21 00:42:50;;;;;;;21.33;11.88;;;;;;;-144.19;100.00;79694.47;5010784;28;20156;-84
2021/12/21 00:45:17;;;;;;;18.27;10.43;;;;;;;-144.19;100.00;79724.00;5012057;28;20072;-87
2021/12/21 00:47:47;;;;;;;19.73;12.05;;;;;;;-144.19;100.00;79702.34;5010581;28;20054;-87
2021/12/21 00:50:16;;;;;;;21.83;12.60;;;;;;;-144.19;100.00;79682.66;5011058;28;20054;-86
2021/12/21 00:52:45;;;;;;;25.20;12.75;;;;;;;-144.19;100.00;79690.53;5010747;28;20042;-87
2021/12/21 00:55:11;;;;;;;22.65;11.52;;;;;;;-144.19;100.00;79696.44;5010567;28;20050;-85
2021/12/21 00:57:38;;;;;;;22.80;12.38;;;;;;;-144.19;100.00;79690.53;5010585;28;20049;-88
2021/12/21 01:00:07;;;;;;;19.63;12.55;;;;;;;-144.19;100.00;79690.53;5010212;28;20054;-85
2021/12/21 01:02:33;;;;;;;20.63;12.05;;;;;;;-144.19;100.00;79704.31;5011402;28;20042;-84
2021/12/21 01:05:00;;;;;;;;;;;;;;;-144.19;100.00;79708.25;5013600;28;20057;-86
2021/12/21 01:07:34;;;;;;;19.27;11.80;;;;;;;-144.19;100.00;79725.97;5014368;28;19921;-83
2021/12/21 01:12:57;;;;;;;20.52;11.45;;;;;;;-144.19;100.00;79714.16;5015390;28;20045;-85
2021/12/21 01:18:02;;;;;;;23.33;11.60;;;;;;;-144.19;100.00;79722.03;5014949;28;20054;-84
2021/12/21 01:20:35;;;;;;;24.13;12.80;;;;;;;-144.19;100.00;79714.16;5014844;28;20442;-86
2021/12/21 01:23:37;;;;;;;22.00;11.82;;;;;;;-144.19;100.00;79733.88;5014992;28;20049;-85
2021/12/21 01:26:09;;;;;;;20.55;11.45;;;;;;;-144.19;100.00;79739.78;5015851;28;20061;-87
2021/12/21 01:33:56;;;;;;;24.67;11.93;;;;;;;-144.19;100.00;79720.06;5015761;28;20050;-85
2021/12/21 01:39:53;;;;;;;22.10;11.27;;;;;;;-144.19;100.00;79745.69;4993281;28;20054;-89
2021/12/21 01:42:50;;;;;;;18.60;11.07;;;;;;;-144.19;100.00;79739.78;4992831;28;20051;-86
2021/12/21 01:50:30;;;;;;;20.63;11.90;;;;;;;-144.19;100.00;79757.50;5015589;28;20056;-88
2021/12/21 01:52:57;;;;;;;15.55;10.38;;;;;;;-144.19;100.00;79745.69;5015010;28;20050;-86
2021/12/21 01:55:24;;;;;;;18.40;11.07;;;;;;;-144.19;100.00;79757.50;5014389;28;20054;-86
2021/12/21 01:57:50;;;;;;;21.88;11.23;;;;;;;-144.19;100.00;79753.56;5013474;28;20500;-86
2021/12/21 02:00:17;;;;;;;19.83;11.68;;;;;;;-144.19;100.00;79745.69;5014031;28;20050;-87
2021/12/21 02:02:43;;;;;;;18.65;11.23;;;;;;;-144.19;100.00;79761.44;5013367;28;20046;-87
2021/12/21 02:05:10;;;;;;;23.73;13.55;;;;;;;-144.19;100.00;79763.41;5014488;28;20085;-87
2021/12/21 02:07:36;;;;;;;22.52;12.82;;;;;;;-144.19;100.00;79771.28;5013467;28;20128;-88
2021/12/21 02:10:04;;;;;;;21.73;12.52;;;;;;;-144.19;100.00;79781.16;5013407;28;20500;-87
2021/12/21 02:12:30;;;;;;;25.60;13.32;;;;;;;-144.19;100.00;79767.34;5014408;28;20056;-87
2021/12/21 02:14:59;;;;;;;25.00;11.90;;;;;;;-144.19;100.00;79767.34;5013325;28;20542;-86
2021/12/21 02:20:38;;;;;;;22.85;11.93;;;;;;;-144.19;100.00;79737.81;5014640;28;20053;-87
2021/12/21 02:23:09;;;;;;;24.38;11.80;;;;;;;-144.19;100.00;79757.50;5014282;28;20503;-87
2021/12/21 02:25:59;;;;;;;18.92;11.13;;;;;;;-144.19;100.00;79765.38;5013441;28;20058;-87
2021/12/21 02:30:55;;;;;;;20.35;12.25;;;;;;;-144.19;100.00;79763.41;5014254;28;20054;-85
2021/12/21 02:33:25;;;;;;;23.60;12.63;;;;;;;-144.19;100.00;79749.63;5013044;28;20053;-87
2021/12/21 02:35:52;;;;;;;22.23;10.57;;;;;;;-144.19;100.00;79761.44;5013033;28;20046;-86
2021/12/21 02:38:19;;;;;;;18.15;10.88;;;;;;;-144.19;100.00;79775.22;5013046;28;20064;-87
2021/12/21 02:40:45;;;;;;;19.17;10.88;;;;;;;-144.19;100.00;79765.38;5013386;28;20061;-87
2021/12/21 02:43:13;;;;;;;16.52;9.93;;;;;;;-144.19;100.00;79765.38;5012760;28;20046;-85
2021/12/21 02:45:41;;;;;;;21.13;10.90;;;;;;;-144.19;100.00;79761.44;5014165;28;20080;-87
2021/12/21 02:48:08;;;;;;;17.85;11.20;;;;;;;-144.19;100.00;79753.56;5012633;28;20463;-86
2021/12/21 02:50:36;;;;;;;20.17;10.48;;;;;;;-144.19;100.00;79757.50;5014049;28;20046;-87
2021/12/21 02:53:03;;;;;;;16.35;10.50;;;;;;;-144.19;100.00;79757.50;5013995;28;20492;-87
2021/12/21 02:55:30;;;;;;;;;;;;;;;-144.19;100.00;79759.47;5013518;28;20424;-87
2021/12/21 02:57:57;;;;;;;17.83;10.63;;;;;;;-144.19;100.00;79773.25;5012347;28;19958;-85
2021/12/21 03:00:25;;;;;;;15.48;10.55;;;;;;;-144.19;100.00;79773.25;5012986;28;20056;-85
2021/12/21 03:02:52;;;;;;;17.02;10.50;;;;;;;-144.19;100.00;79773.25;5013751;28;20050;-88
2021/12/21 03:05:20;;;;;;;17.50;10.25;;;;;;;-144.19;100.00;79773.25;5013187;28;20050;-86
2021/12/21 03:10:16;;;;;;;18.95;11.30;;;;;;;-144.19;100.00;79753.56;5013635;28;19921;-88
2021/12/21 03:15:19;;;;;;;16.67;11.00;;;;;;;-144.19;100.00;79769.31;5013499;28;20500;-87
2021/12/21 03:17:46;;;;;;;17.90;10.50;;;;;;;-144.19;100.00;79783.13;5011154;28;20058;-87
2021/12/21 03:20:12;;;;;;;17.38;11.85;;;;;;;-144.19;100.00;79777.19;5012759;28;20054;-86
2021/12/21 03:22:39;;;;;;;19.55;11.65;;;;;;;-144.19;100.00;79757.50;5010135;28;20571;-87
2021/12/21 03:25:06;;;;;;;21.80;11.70;;;;;;;-144.19;100.00;79765.38;4999335;28;20053;-88
2021/12/21 03:27:32;;;;;;;20.45;11.63;;;;;;;-144.19;100.00;79765.38;5011361;28;20570;-87
2021/12/21 03:29:59;;;;;;;17.73;10.75;;;;;;;-144.19;100.00;79792.97;5012137;28;20059;-89
2021/12/21 03:32:25;;;;;;;21.33;11.70;;;;;;;-144.19;100.00;79792.97;5011318;28;20045;-87
2021/12/21 03:34:52;;;;;;;18.45;10.27;;;;;;;-144.19;100.00;79785.09;5012171;28;20054;-86
2021/12/21 03:37:18;;;;;;;19.35;12.20;;;;;;;-144.19;100.00;79777.19;5012363;28;20060;-86
2021/12/21 03:39:46;;;;;;;14.13;8.85;;;;;;;-144.19;100.00;79777.19;5045402;28;20056;-85
2021/12/21 03:42:15;;;;;;;21.45;13.20;;;;;;;-144.19;100.00;79781.16;5011730;28;20503;-86
2021/12/21 03:44:42;;;;;;;15.85;10.70;;;;;;;-144.19;100.00;79781.16;5012384;28;20049;-85
2021/12/21 03:47:10;;;;;;;;;;;;;;;-144.19;100.00;79777.19;5013665;28;20046;-86
2021/12/21 03:52:14;;;;;;;23.55;13.95;;;;;;;-144.19;100.00;79794.94;4993631;28;20607;-87
2021/12/21 03:54:44;;;;;;;28.08;11.95;;;;;;;-144.19;100.00;79785.09;5011481;28;20065;-84
2021/12/21 03:57:11;;;;;;;22.27;13.25;;;;;;;-144.19;100.00;79773.25;5011601;28;20058;-86
2021/12/21 03:59:37;;;;;;;;;;;;;;;-144.19;100.00;79796.91;5012033;28;20690;-86
2021/12/21 04:02:05;;;;;;;21.00;12.15;;;;;;;-144.19;100.00;79794.94;5011852;28;19928;-86
2021/12/21 04:04:31;;;;;;;21.02;13.40;;;;;;;-144.19;100.00;79792.97;5012803;28;20050;-85
2021/12/21 04:06:57;;;;;;;21.92;13.13;;;;;;;-144.19;100.00;79781.16;5011790;28;20093;-86
2021/12/21 04:09:24;;;;;;;24.63;11.93;;;;;;;-144.19;100.00;79794.94;5044697;28;20132;-86
2021/12/21 04:11:50;;;;;;;16.90;11.32;;;;;;;-144.19;100.00;79812.66;5011652;28;20046;-87
2021/12/21 04:14:18;;;;;;;18.40;12.70;;;;;;;-144.19;100.00;79800.84;5012502;28;20522;-87
2021/12/21 04:16:44;;;;;;;19.13;11.82;;;;;;;-144.19;100.00;79785.09;5011164;28;20052;-85
2021/12/21 04:19:12;;;;;;;21.52;11.73;;;;;;;-144.19;100.00;79791.00;5010095;28;20053;-84
2021/12/21 04:21:39;;;;;;;20.67;11.80;;;;;;;-144.19;100.00;79791.00;5011391;28;20050;-89
2021/12/21 04:24:06;;;;;;;20.40;11.63;;;;;;;-144.19;100.00;79794.94;5010614;28;20057;-87
2021/12/21 04:26:33;;;;;;;22.25;12.13;;;;;;;-144.19;100.00;79789.03;5012110;28;20056;-86
2021/12/21 04:28:59;;;;;;;16.98;11.40;;;;;;;-144.19;100.00;79812.66;5011636;28;20056;-87
2021/12/21 04:31:26;;;;;;;;;;;;;;;-144.19;100.00;79802.81;5010944;28;20058;-86
2021/12/21 04:33:53;;;;;;;23.38;12.30;;;;;;;-144.19;100.00;79792.97;5044377;28;19921;-88
2021/12/21 04:36:20;;;;;;;18.38;11.45;;;;;;;-144.19;100.00;79781.16;5011748;28;20476;-87
2021/12/21 04:38:49;;;;;;;21.10;12.82;;;;;;;-144.19;100.00;79777.19;5013562;28;20071;-87
2021/12/21 04:41:23;;;;;;;21.42;12.48;;;;;;;-144.19;100.00;79781.16;5044140;28;20050;-87
2021/12/21 04:43:51;;;;;;;21.17;13.10;;;;;;;-144.19;100.00;79773.25;5044811;28;20070;-86
2021/12/21 04:46:18;;;;;;;23.05;12.23;;;;;;;-144.19;100.00;79789.03;5012797;28;20385;-87
2021/12/21 04:48:45;;;;;;;19.92;11.75;;;;;;;-144.19;100.00;79781.16;5012032;28;20064;-87
2021/12/21 04:51:12;;;;;;;21.60;12.50;;;;;;;-144.19;100.00;79769.31;5014742;28;20124;-89
2021/12/21 04:53:39;;;;;;;22.73;12.35;;;;;;;-144.19;100.00;79759.47;5017488;28;20072;-88
2021/12/21 04:56:06;;;;;;;23.48;11.65;;;;;;;-144.19;100.00;79769.31;5012429;28;20053;-89
2021/12/21 04:58:32;;;;;;;;;;;;;;;-144.19;100.00;79761.44;5014582;28;20053;-89
2021/12/21 05:00:59;;;;;;;20.58;11.18;;;;;;;-144.19;100.00;79763.41;5012076;28;19925;-87
2021/12/21 05:03:25;;;;;;;17.20;11.40;;;;;;;-144.19;100.00;79769.31;5013066;28;20054;-90
2021/12/21 05:05:52;;;;;;;19.38;11.52;;;;;;;-144.19;100.00;79771.28;5011809;28;20052;-87
2021/12/21 05:08:23;;;;;;;24.80;13.45;;;;;;;-144.19;100.00;79757.50;5011653;28;20427;-87
2021/12/21 05:10:53;;;;;;;19.58;12.48;;;;;;;-144.19;100.00;79765.38;5011986;28;20053;-88
2021/12/21 05:13:22;;;;;;;23.38;13.57;;;;;;;-144.19;100.00;79775.22;5012493;28;20050;-88
2021/12/21 05:15:49;;;;;;;20.73;13.45;;;;;;;-144.19;100.00;79785.09;5011680;28;20052;-91
2021/12/21 05:18:19;;;;;;;;;;;;;;;-144.19;100.00;79773.25;5012397;28;20522;-87
2021/12/21 05:20:45;;;;;;;22.27;12.63;;;;;;;-144.19;100.00;79773.25;5013589;28;19929;-87
2021/12/21 05:23:12;;;;;;;21.63;13.18;;;;;;;-144.19;100.00;79777.19;5011246;28;20057;-88
2021/12/21 05:25:39;;;;;;;21.98;13.90;;;;;;;-144.19;100.00;79773.25;5011577;28;20046;-86
2021/12/21 05:28:07;;;;;;;24.60;14.50;;;;;;;-144.19;100.00;79761.44;5010964;28;20057;-89
2021/12/21 05:30:34;;;;;;;25.45;15.80;;;;;;;-144.19;100.00;79765.38;5011381;28;20058;-87
2021/12/21 05:33:02;;;;;;;27.00;13.25;;;;;;;-144.19;100.00;79763.41;5011271;28;20045;-86
2021/12/21 05:35:29;;;;;;;19.88;12.48;;;;;;;-144.19;100.00;79753.56;5011380;28;20467;-87
2021/12/21 05:38:00;;;;;;;;;;;;;;;-144.19;100.00;79741.75;5011325;28;20050;-87
2021/12/21 05:40:34;;;;;;;22.63;13.10;;;;;;;-144.19;100.00;79739.78;5012795;28;19921;-89
2021/12/21 05:43:01;;;;;;;20.95;11.68;;;;;;;-144.19;100.00;79751.59;5010975;28;20050;-87
2021/12/21 05:45:28;;;;;;;24.48;12.80;;;;;;;-144.19;100.00;79741.75;5011297;28;20489;-89
2021/12/21 05:47:54;;;;;;;25.00;12.73;;;;;;;-144.19;100.00;79733.88;5010607;28;20056;-86
2021/12/21 05:50:21;;;;;;;19.13;12.05;;;;;;;-144.19;100.00;79747.66;5012807;28;20508;-87
2021/12/21 05:52:48;;;;;;;19.23;12.95;;;;;;;-144.19;100.00;79753.56;5014237;28;20046;-88
2021/12/21 05:55:15;;;;;;;;;;;;;;;-144.19;100.00;79753.56;5014948;28;20054;-86
2021/12/21 05:57:42;;;;;;;26.13;13.52;;;;;;;-144.19;100.00;79749.63;5014345;28;19922;-90
2021/12/21 06:00:15;;;;;;;25.15;12.25;;;;;;;-144.19;100.00;79757.50;5014449;28;20050;-88
2021/12/21 06:02:41;;;;;;;23.10;14.82;;;;;;;-144.19;100.00;79753.56;5015457;28;20050;-87
2021/12/21 06:05:09;;;;;;;24.67;13.27;;;;;;;-144.19;100.00;79765.38;5014564;28;20115;-87
2021/12/21 06:07:36;;;;;;;20.77;13.02;;;;;;;-144.19;100.00;79757.50;5015079;28;20053;-88
2021/12/21 06:10:16;;;;;;;28.08;13.70;;;;;;;-144.19;100.00;79761.44;5015301;28;20049;-88
2021/12/21 06:13:20;;;;;;;21.40;12.82;;;;;;;-144.19;100.00;79767.34;5013723;28;20072;-89
2021/12/21 06:15:55;;;;;;;22.25;12.57;;;;;;;-144.19;100.00;79779.16;5014979;28;20060;-87
2021/12/21 06:26:22;;;;;;;20.33;12.30;;;;;;;-144.19;100.00;79773.25;4994827;28;20061;-87
2021/12/21 06:28:49;;;;;;;20.90;13.18;;;;;;;-144.19;100.00;79777.19;4994015;28;20058;-86
2021/12/21 06:31:15;;;;;;;21.95;13.05;;;;;;;-144.19;100.00;79771.28;4994056;28;20046;-87
2021/12/21 06:33:42;;;;;;;22.25;13.30;;;;;;;-144.19;100.00;79775.22;4994095;28;20047;-90
2021/12/21 06:36:09;;;;;;;23.38;13.52;;;;;;;-144.19;100.00;79767.34;4993704;28;20517;-87
2021/12/21 06:38:37;;;;;;;22.73;13.75;;;;;;;-144.19;100.00;79787.06;4993876;28;20050;-87
2021/12/21 06:41:04;;;;;;;19.50;12.70;;;;;;;-144.19;100.00;79791.00;4993892;28;20061;-87
2021/12/21 06:43:32;;;;;;;25.73;14.77;;;;;;;-144.19;100.00;79792.97;4993385;28;20046;-87
2021/12/21 06:46:07;;;;;;;18.70;12.52;;;;;;;-144.19;100.00;79800.84;4994686;28;20057;-87
2021/12/21 06:51:44;;;;;;;19.88;13.65;;;;;;;-144.19;100.00;79796.91;4995293;28;20058;-86
2021/12/21 06:54:10;;;;;;;27.55;14.55;;;;;;;-144.19;100.00;79792.97;4994915;28;20046;-86
2021/12/21 06:56:36;;;;;;;18.98;12.65;;;;;;;-144.19;100.00;79789.03;4995040;28;20065;-87
2021/12/21 06:59:03;;;;;;;24.38;14.23;;;;;;;-144.19;100.00;79783.13;4993506;28;20568;-87
2021/12/21 07:01:31;;;;;;;28.10;13.98;;;;;;;-144.19;100.00;79802.81;4993811;28;20489;-87
2021/12/21 07:03:58;;;;;;;24.75;12.73;;;;;;;-144.19;100.00;79802.81;4993513;28;20539;-86
2021/12/21 07:06:25;;;;;;;27.85;14.13;;;;;;;-144.19;100.00;79796.91;4993145;28;20113;-86
2021/12/21 07:09:00;;;;;;;22.92;12.43;;;;;;;-144.19;100.00;79812.66;4993389;28;20050;-89
2021/12/21 07:19:35;;;;;;;26.77;14.70;;;;;;;-144.19;100.00;79794.94;4995188;28;20051;-86
2021/12/21 07:22:02;;;;;;;23.60;14.43;;;;;;;-144.19;100.00;79792.97;5013676;28;20073;-85
2021/12/21 07:24:28;;;;;;;26.30;14.57;;;;;;;-144.19;100.00;79796.91;5012507;28;20057;-87
2021/12/21 07:26:55;;;;;;;25.33;13.90;;;;;;;-144.19;100.00;79792.97;5011991;28;20061;-87
2021/12/21 07:29:22;;;;;;;19.25;12.70;;;;;;;-144.19;100.00;79798.88;5012671;28;20432;-86
2021/12/21 07:31:48;;;;;;;23.15;14.68;;;;;;;-144.19;100.00;79792.97;5012470;28;20068;-88
2021/12/21 07:34:14;;;;;;;25.08;13.15;;;;;;;-144.19;100.00;79781.16;5012191;28;20761;-85
2021/12/21 07:36:43;;;;;;;23.23;14.50;;;;;;;-144.19;100.00;79771.28;5014161;28;20050;-87
2021/12/21 07:39:13;;;;;;;25.75;15.15;;;;;;;-144.19;100.00;79755.53;5017668;28;20054;-88
2021/12/21 07:41:41;;;;;;;26.98;14.27;;;;;;;-144.19;100.00;79749.63;5015400;28;20042;-85
2021/12/21 07:44:07;;;;;;;24.98;14.45;;;;;;;-144.19;100.00;79741.75;5017765;28;20042;-84
2021/12/21 07:46:34;;;;;;;28.65;16.60;;;;;;;-144.19;100.00;79737.81;5016205;28;20046;-85
2021/12/21 07:49:01;;;;;;;28.98;15.07;;;;;;;-144.19;100.00;79745.69;5017994;28;20053;-86
2021/12/21 07:51:27;;;;;;;;;;;;;;;-144.19;100.00;79753.56;5017803;28;20049;-87
2021/12/21 07:53:54;;;;;;;26.55;15.65;;;;;;;-144.19;100.00;79735.84;5015208;28;19928;-85
2021/12/21 07:56:21;;;;;;;27.63;15.90;;;;;;;-144.19;100.00;79725.97;5017244;28;20041;-85
2021/12/21 07:58:47;;;;;;;27.05;15.55;;;;;;;-144.19;100.00;79718.09;5016099;28;20042;-86
2021/12/21 08:01:14;;;;;;;24.95;15.60;;;;;;;-144.19;100.00;79710.22;5015747;28;20050;-85
2021/12/21 08:03:41;;;;;;;30.77;15.10;;;;;;;-144.19;100.00;79769.31;5017490;28;20056;-85
2021/12/21 08:06:11;;;;;;;23.80;14.75;;;;;;;-144.19;100.00;79773.25;5012764;28;20085;-86
2021/12/21 08:08:41;;;;;;;30.40;16.02;;;;;;;-144.19;100.00;79745.69;5015552;28;20052;-86
2021/12/21 08:11:12;;;;;;;26.50;15.88;;;;;;;-144.19;100.00;79722.03;5016917;28;20061;-85
2021/12/21 08:13:41;;;;;;;26.75;16.75;;;;;;;-144.19;100.00;79733.88;5014444;28;20053;-85
2021/12/21 08:16:07;;;;;;;35.33;18.17;;;;;;;-144.19;100.00;79731.91;5015839;28;20046;-85
2021/12/21 08:18:34;;;;;;;34.45;18.55;;;;;;;-144.19;100.00;79753.56;5015768;28;20357;-86
2021/12/21 08:21:01;;;;;;;32.00;17.33;;;;;;;-144.19;100.00;79729.91;5016164;28;20054;-87
2021/12/21 08:23:28;;;;;;;29.15;16.85;;;;;;;-144.19;100.00;79702.34;5014931;28;20042;-85
2021/12/21 08:25:56;;;;;;;30.60;18.50;;;;;;;-144.19;100.00;79692.50;5015714;28;20050;-86
2021/12/21 08:28:23;;;;;;;27.02;17.08;;;;;;;-144.19;100.00;79688.56;5015005;28;20683;-85
2021/12/21 08:30:50;;;;;;;34.03;18.42;;;;;;;-144.19;100.00;79670.81;5008027;28;20514;-85
2021/12/21 08:33:21;;;;;;;31.08;17.98;;;;;;;-144.19;100.00;79655.06;5012570;28;20057;-85
2021/12/21 08:35:47;;;;;;;41.05;21.30;;;;;;;-144.19;100.00;79641.28;5011837;28;20060;-86
2021/12/21 08:38:16;;;;;;;35.72;20.25;;;;;;;-144.19;100.00;79629.47;5012188;28;20416;-85
2021/12/21 08:40:48;;;;;;;36.17;20.52;;;;;;;-144.19;100.00;79617.63;5012862;28;20085;-84
2021/12/21 08:43:17;;;;;;;41.15;21.10;;;;;;;-144.19;100.00;79621.56;5012398;28;20054;-88
2021/12/21 08:45:45;;;;;;;39.78;21.85;;;;;;;-144.19;100.00;79609.75;5012830;28;20056;-86
2021/12/21 08:48:13;;;;;;;37.38;20.85;;;;;;;-144.19;100.00;79592.03;5012328;28;20050;-86
2021/12/21 08:50:40;;;;;;;37.15;19.45;;;;;;;-144.19;100.00;79595.97;5010945;28;20056;-85
2021/12/21 08:53:08;;;;;;;45.13;20.48;;;;;;;-144.19;100.00;79588.09;5009948;28;20516;-85
2021/12/21 08:55:34;;;;;;;45.58;20.83;;;;;;;-144.19;100.00;79590.06;5013239;28;20060;-85
2021/12/21 08:58:01;;;;;;;37.88;19.30;;;;;;;-144.19;100.00;79588.09;5012333;28;20140;-86
2021/12/21 09:00:27;;;;;;;41.58;20.58;;;;;;;-144.19;100.00;79588.09;5012167;28;20057;-85
2021/12/21 09:02:54;;;;;;;35.50;19.02;;;;;;;-144.19;100.00;79576.28;5010699;28;20049;-88
2021/12/21 09:05:26;;;;;;;34.28;17.67;;;;;;;-144.19;100.00;79588.09;5010639;28;20415;-87
2021/12/21 09:07:53;;;;;;;30.38;18.70;;;;;;;-144.19;100.00;79605.81;5010291;28;20056;-87
2021/12/21 09:10:23;;;;;;;28.58;17.23;;;;;;;-144.19;100.00;79617.63;5010560;28;20053;-85
2021/12/21 09:12:50;;;;;;;40.90;17.95;;;;;;;-144.19;100.00;79623.53;5011664;28;20054;-86
2021/12/21 09:15:18;;;;;;;29.75;17.20;;;;;;;-144.19;100.00;79627.50;5010744;28;20054;-86
2021/12/21 09:17:44;;;;;;;30.83;17.73;;;;;;;-144.19;100.00;79613.69;5010436;28;20061;-87
2021/12/21 09:20:17;;;;;;;37.72;17.40;;;;;;;-144.19;100.00;79617.63;5011652;28;20046;-87
2021/12/21 09:22:48;;;;;;;34.70;16.45;;;;;;;-144.19;100.00;79615.66;4991465;28;20054;-88
2021/12/21 09:25:16;;;;;;;26.23;16.77;;;;;;;-144.19;100.00;79613.69;4992034;28;20508;-86
2021/12/21 09:27:43;;;;;;;34.75;18.45;;;;;;;-144.19;100.00;79603.84;4996360;28;20060;-89
2021/12/21 09:30:14;;;;;;;30.17;17.77;;;;;;;-144.19;100.00;79594.00;5008968;28;20050;-87
2021/12/21 09:32:40;;;;;;;30.35;18.83;;;;;;;-144.19;100.00;79574.31;5016766;28;20053;-86
2021/12/21 09:35:08;;;;;;;28.40;18.25;;;;;;;-144.19;100.00;79570.34;5015355;28;20050;-85
2021/12/21 09:37:35;;;;;;;33.33;18.30;;;;;;;-144.19;100.00;79564.44;5013992;28;20041;-87
2021/12/21 09:40:06;;;;;;;34.03;20.27;;;;;;;-144.19;100.00;79554.59;5014008;28;20053;-86
2021/12/21 09:42:33;;;;;;;33.92;19.30;;;;;;;-144.19;100.00;79552.63;5012000;28;20053;-88
2021/12/21 09:45:01;;;;;;;33.40;20.42;;;;;;;-144.19;100.00;79530.97;5013709;28;20045;-89
2021/12/21 09:47:28;;;;;;;33.17;19.95;;;;;;;-144.19;100.00;79525.06;5008589;28;20061;-89
2021/12/21 09:49:55;;;;;;;45.30;22.45;;;;;;;-144.19;100.00;79503.38;5012568;28;20042;-86
2021/12/21 09:52:29;;;;;;;;;;;;;;;-144.19;100.00;79485.66;5015476;28;20049;-90
2021/12/21 09:54:57;;;;;;;39.30;21.20;;;;;;;-144.19;100.00;79501.41;5012055;28;19961;-88
2021/12/21 09:57:24;;;;;;;39.67;24.77;;;;;;;-144.19;100.00;79481.72;5013888;28;20049;-87
2021/12/21 09:59:51;;;;;;;34.33;20.85;;;;;;;-144.19;100.00;79469.91;5013426;28;20050;-86
2021/12/21 10:02:20;;;;;;;34.72;21.38;;;;;;;-144.19;100.00;79469.91;5014674;28;20053;-85
2021/12/21 10:04:50;;;;;;;42.65;23.67;;;;;;;-144.19;100.00;79436.41;5015471;28;20042;-86
2021/12/21 10:07:18;;;;;;;45.97;22.55;;;;;;;-144.19;100.00;79450.19;5011651;28;20064;-86
2021/12/21 10:09:47;;;;;;;40.65;24.60;;;;;;;-144.19;100.00;79446.25;5014813;28;20424;-87
2021/12/21 10:12:32;;;;;;;54.33;27.60;;;;;;;-144.19;100.00;79436.41;5013609;28;20076;-85
2021/12/21 10:15:06;;;;;;;43.67;22.85;;;;;;;-144.19;100.00;79452.16;5011967;28;20042;-86
2021/12/21 10:17:35;;;;;;;34.63;21.33;;;;;;;-144.19;100.00;79442.31;5012039;28;20046;-86
2021/12/21 10:20:08;;;;;;;33.83;21.08;;;;;;;-144.19;100.00;79430.50;5013537;28;20332;-86
2021/12/21 10:22:37;;;;;;;32.38;21.60;;;;;;;-144.19;100.00;79420.66;5011090;28;20053;-84
2021/12/21 10:25:07;;;;;;;34.33;20.85;;;;;;;-144.19;100.00;79314.28;5011645;28;20048;-85
2021/12/21 10:27:43;;;;;;;35.70;22.83;;;;;;;-144.19;100.00;79184.28;5012056;28;20053;-86
2021/12/21 10:30:10;;;;;;;31.52;21.58;;;;;;;-144.19;100.00;79146.84;5012447;28;20432;-87
2021/12/21 10:32:37;;;;;;;29.00;20.80;;;;;;;-144.19;100.00;79095.66;5012228;28;20496;-85
2021/12/21 10:35:08;;;;;;;32.33;20.10;;;;;;;-144.19;100.00;79099.59;5013320;28;20049;-86
2021/12/21 10:37:38;;;;;;;30.85;20.08;;;;;;;-144.19;100.00;79032.63;5010517;28;20041;-87
2021/12/21 10:40:09;;;;;;;30.65;19.15;;;;;;;-144.19;100.00;78963.69;5012482;28;20052;-88
2021/12/21 10:42:59;;;;;;;37.03;20.30;;;;;;;-144.19;100.00;78835.66;5008080;28;20052;-86
2021/12/21 10:45:32;;;;;;;29.35;16.65;;;;;;;-144.19;100.00;78894.75;5013163;28;20049;-87
2021/12/21 10:47:59;;;;;;;26.70;17.58;;;;;;;-144.19;100.00;78902.63;5010558;28;20052;-87
2021/12/21 10:50:29;;;;;;;24.83;16.70;;;;;;;-144.19;100.00;78953.84;5014368;28;20046;-86
2021/12/21 10:52:59;;;;;;;25.42;16.83;;;;;;;-144.19;100.00;78963.69;5005416;28;20108;-84
2021/12/21 10:55:28;;;;;;;29.15;17.20;;;;;;;-144.19;100.00;78819.91;5011600;28;20046;-85
2021/12/21 10:58:06;;;;;;;27.98;16.83;;;;;;;-144.19;100.00;78871.13;5012412;28;20048;-86
2021/12/21 11:00:34;;;;;;;27.08;15.93;;;;;;;-144.19;100.00;78784.44;5012318;28;20054;-87
2021/12/21 11:03:01;;;;;;;27.05;15.20;;;;;;;-144.19;100.00;78863.22;5012635;28;20053;-85
2021/12/21 11:05:33;;;;;;;22.85;15.00;;;;;;;-144.19;100.00;78835.66;5011366;28;20123;-86
2021/12/21 11:08:16;;;;;;;24.30;15.45;;;;;;;-144.19;100.00;78882.94;5013247;28;20045;-86
2021/12/21 11:10:50;;;;;;;25.85;15.90;;;;;;;-144.19;100.00;78810.06;5012821;28;20182;-88
2021/12/21 11:13:17;;;;;;;23.77;16.40;;;;;;;-144.19;100.00;78664.31;5015780;28;20052;-87
2021/12/21 11:15:53;;;;;;;20.65;15.05;;;;;;;-144.19;96.04;78768.69;5013153;28;20061;-86
2021/12/21 11:18:21;;;;;;;28.77;15.85;;;;;;;-144.19;100.00;78646.59;5009273;28;20041;-86
2021/12/21 11:20:51;;;;;;;21.25;16.85;;;;;;;-144.19;91.62;78422.09;5012662;28;20424;-85
2021/12/21 11:23:21;;;;;;;23.05;16.42;;;;;;;-144.19;88.75;78496.91;5014496;28;20049;-86
2021/12/21 11:25:49;;;;;;;23.38;15.15;;;;;;;-144.19;89.15;78528.44;5011100;28;20049;-83
2021/12/21 11:28:20;;;;;;;26.00;16.80;;;;;;;-144.19;88.86;78676.13;5010697;28;20045;-85
2021/12/21 11:30:47;;;;;;;23.20;14.68;;;;;;;-144.19;91.42;78575.69;5009200;28;20045;-86
2021/12/21 11:33:18;;;;;;;21.00;15.95;;;;;;;-144.19;93.09;78630.84;5010801;28;20049;-85
2021/12/21 11:38:12;;;;;;;24.67;16.63;;;;;;;-144.19;89.36;78489.03;5009441;28;20045;-85
2021/12/21 11:40:41;;;;;;;23.45;17.38;;;;;;;-144.19;92.48;78575.69;5011801;28;20058;-87
2021/12/21 11:43:23;;;;;;;23.58;15.38;;;;;;;-144.19;95.92;78589.47;5009124;28;20046;-85
2021/12/21 11:46:00;;;;;;;19.10;15.25;;;;;;;-144.19;92.84;78670.22;5009034;28;20054;-90
2021/12/21 11:48:33;;;;;;;23.88;15.68;;;;;;;-144.19;98.22;78674.16;5008749;28;20710;-85
2021/12/21 11:51:06;;;;;;;21.13;15.35;;;;;;;-144.19;98.22;78729.31;5011301;28;20049;-88
2021/12/21 11:53:33;;;;;;;24.73;16.40;;;;;;;-144.19;99.58;78670.22;5011502;28;20760;-85
2021/12/21 11:55:59;;;;;;;25.63;16.05;;;;;;;-144.19;99.40;78615.09;5010703;28;20056;-84
2021/12/21 11:58:32;;;;;;;24.38;15.10;;;;;;;-144.19;94.99;78609.16;5010929;28;20042;-88
2021/12/21 12:01:04;;;;;;;26.10;16.77;;;;;;;-144.19;95.81;78705.66;5009973;28;20548;-86